Central Virginia Flyers


Central Virginia Flyers is a 10 member flying club based in Richmond, VA at Hanover County Airport (KOFP). We own N787AT, a 1977 Cessna 172 with 180hp conversion. If you are interested in membership, please contact Brenton at [email protected]


Aviation Digital Data Service (ADDS)

Output produced by METARs form (0928 UTC 21 May 2019)
found at http://aviationweather.gov/metar/data/
 
KOFP 210854Z AUTO 00000KT 7SM CLR 15/13 A2994 RMK AO2 SLP136 T01500133 51013 TSNO
KRIC 210854Z 01007KT 10SM FEW095 19/14 A2992 RMK AO2 SLP136 T01890144 51015
KRIC 210529Z 2106/2206 32005KT P6SM SKC 
     FM211200 01011KT P6SM SKC 
     FM211600 34008KT P6SM SKC 
     FM212300 04005KT P6SM SKC